Time;durP1;ratioP1;P1;durP2;ratioP2;P2;SDS_P1;SDS_P2;PMS_P1;PMS_P2;Temp;Humidity;BMP_temperature;BMP_pressure;BME280_temperature;BME280_humidity;BME280_pressure;Samples;Min_cycle;Max_cycle;Signal;HPM_P1;HPM_P2
2024/01/26 00:01:56;;;;;;;319.57;71.93;;;1.90;92.40;4.20;97516.00;;;;5007408;28;20472;-85
2024/01/26 00:04:45;;;;;;;316.53;69.40;;;1.90;92.50;4.30;97516.00;;;;5009226;28;20456;-85
2024/01/26 00:07:34;;;;;;;324.43;82.63;;;1.90;92.70;4.20;97512.00;;;;5013137;28;20422;-85
2024/01/26 00:10:24;;;;;;;321.03;71.67;;;1.90;92.60;4.10;97514.00;;;;5008799;28;20460;-85
2024/01/26 00:13:13;;;;;;;322.97;73.13;;;1.80;92.80;3.90;97519.00;;;;5002169;28;20844;-85
2024/01/26 00:16:02;;;;;;;315.10;68.37;;;1.80;92.80;4.20;97521.00;;;;5023776;28;20468;-84
2024/01/26 00:18:51;;;;;;;313.10;67.53;;;1.80;92.90;3.80;97512.00;;;;5014717;28;20440;-82
2024/01/26 00:21:40;;;;;;;314.67;68.63;;;1.80;92.90;4.20;97528.00;;;;5012454;28;20453;-83
2024/01/26 00:24:29;;;;;;;315.70;69.67;;;1.90;93.00;3.90;97516.00;;;;5019837;28;20939;-83
2024/01/26 00:27:19;;;;;;;356.27;99.43;;;1.70;99.90;3.20;97510.00;;;;5015883;28;20407;-84
2024/01/26 00:30:10;;;;;;;324.20;72.73;;;1.70;93.20;3.60;97521.00;;;;4995960;28;20713;-82
2024/01/26 00:32:59;;;;;;;319.47;70.70;;;1.60;93.50;3.90;97524.00;;;;4994827;28;20434;-83
2024/01/26 00:35:48;;;;;;;321.17;72.17;;;1.60;93.50;4.10;97535.00;;;;4996200;28;20473;-84
2024/01/26 00:38:37;;;;;;;316.93;70.33;;;1.70;93.50;3.60;97534.00;;;;5005107;28;20440;-83
2024/01/26 00:41:26;;;;;;;324.07;74.73;;;1.70;93.50;4.00;97527.00;;;;4990621;28;20449;-83
2024/01/26 00:44:16;;;;;;;328.70;77.67;;;1.70;93.50;4.00;97533.00;;;;5004927;28;20464;-85
2024/01/26 00:47:05;;;;;;;315.17;69.93;;;1.70;93.80;4.10;97537.00;;;;5011215;28;20434;-85
2024/01/26 00:49:54;;;;;;;316.60;71.43;;;1.70;93.90;3.80;97535.00;;;;4995235;28;20540;-84
2024/01/26 00:52:43;;;;;;;315.90;70.03;;;;;3.20;97533.00;;;;4997957;28;20502;-84
2024/01/26 00:55:32;;;;;;;310.40;67.80;;;1.50;93.70;2.40;97533.00;;;;5003378;28;20914;-85
2024/01/26 00:58:20;;;;;;;323.50;74.00;;;1.20;94.60;2.70;97532.00;;;;5008965;28;20421;-83
2024/01/26 01:01:11;;;;;;;322.23;72.93;;;1.10;95.20;3.20;97548.00;;;;5004510;28;20453;-84
2024/01/26 01:04:00;;;;;;;321.90;73.00;;;1.10;95.20;3.30;97552.00;;;;5007860;28;20518;-83
2024/01/26 01:06:48;;;;;;;317.80;70.93;;;1.20;95.20;2.80;97557.00;;;;5001846;28;20437;-84
2024/01/26 01:09:40;;;;;;;315.43;67.90;;;1.20;99.90;3.50;97555.00;;;;4996866;28;20761;-83
2024/01/26 01:12:29;;;;;;;322.60;73.30;;;1.10;95.50;3.00;97575.00;;;;5002886;28;20447;-84
2024/01/26 01:15:18;;;;;;;325.07;74.40;;;1.10;95.60;2.80;97564.00;;;;5010243;28;21198;-85
2024/01/26 01:18:08;;;;;;;315.57;68.93;;;1.00;95.90;3.00;97569.00;;;;5004756;28;20433;-83
2024/01/26 01:20:57;;;;;;;310.53;66.60;;;0.90;96.00;2.80;97565.00;;;;5007785;28;20881;-83
2024/01/26 01:23:46;;;;;;;316.93;69.70;;;0.80;96.30;2.90;97566.00;;;;5011929;28;20835;-84
2024/01/26 01:26:35;;;;;;;311.57;66.83;;;0.80;96.60;2.90;97588.00;;;;5020301;28;20840;-84
2024/01/26 01:29:24;;;;;;;320.03;71.20;;;0.80;96.30;3.00;97591.00;;;;5006913;28;20433;-84
2024/01/26 01:32:13;;;;;;;323.17;72.30;;;0.80;97.10;3.10;97583.00;;;;5023859;28;20460;-84
2024/01/26 01:35:04;;;;;;;313.27;67.37;;;0.80;96.60;2.70;97572.00;;;;5015976;28;20438;-86
2024/01/26 01:37:54;;;;;;;309.83;66.70;;;0.80;96.70;2.70;97565.00;;;;5011209;28;20440;-84
2024/01/26 01:40:44;;;;;;;312.73;67.93;;;0.70;97.20;3.00;97580.00;;;;5006130;28;20452;-85
2024/01/26 01:43:33;;;;;;;312.83;68.20;;;0.70;97.50;2.90;97581.00;;;;5011050;28;20443;-86
2024/01/26 01:46:22;;;;;;;328.10;75.73;;;0.70;97.50;2.90;97579.00;;;;5017486;28;20432;-86
2024/01/26 01:49:11;;;;;;;319.87;73.83;;;0.70;97.60;2.70;97563.00;;;;5003957;28;20441;-85
2024/01/26 01:52:05;;;;;;;316.73;74.13;;;0.60;97.30;2.30;97554.00;;;;5011098;28;20441;-85
2024/01/26 01:54:57;;;;;;;312.97;68.40;;;0.60;97.90;2.00;97550.00;;;;5017165;28;20441;-84
2024/01/26 01:57:50;;;;;;;311.87;67.30;;;0.40;98.60;2.80;97563.00;;;;5014224;28;20462;-85
2024/01/26 02:00:41;;;;;;;310.30;68.27;;;0.50;98.50;2.80;97556.00;;;;5013747;28;20438;-86
2024/01/26 02:03:30;;;;;;;271.63;67.50;;;0.50;98.40;3.00;97566.00;;;;5043012;28;20433;-84
2024/01/26 02:06:19;;;;;;;318.00;71.73;;;0.50;98.50;3.10;97567.00;;;;5019046;28;20787;-85
2024/01/26 02:09:10;;;;;;;310.70;67.97;;;0.60;98.70;3.00;97571.00;;;;5010005;28;20807;-85
2024/01/26 02:12:00;;;;;;;310.33;67.50;;;0.60;98.50;2.20;97570.00;;;;5009884;28;20482;-86
2024/01/26 02:14:49;;;;;;;314.50;68.93;;;0.50;98.60;2.40;97569.00;;;;5010793;28;20497;-86
2024/01/26 02:17:39;;;;;;;314.37;69.40;;;0.50;98.90;2.30;97565.00;;;;5006851;28;20455;-86
2024/01/26 02:20:28;;;;;;;311.03;66.77;;;0.40;99.10;2.00;97579.00;;;;5004514;28;20490;-86
2024/01/26 02:23:24;;;;;;;317.87;72.73;;;0.30;99.50;2.40;97576.00;;;;5012829;28;20437;-85
2024/01/26 02:26:13;;;;;;;321.57;77.30;;;0.30;99.70;1.80;97580.00;;;;5015628;28;20436;-87
2024/01/26 02:29:02;;;;;;;308.80;69.03;;;0.30;99.90;2.40;97574.00;;;;5013098;28;20433;-83
2024/01/26 02:31:51;;;;;;;314.23;78.57;;;0.30;99.90;2.90;97579.00;;;;5008817;28;20457;-83
2024/01/26 02:34:39;;;;;;;317.63;74.80;;;0.40;99.90;2.90;97589.00;;;;5003525;28;20462;-83
2024/01/26 02:37:28;;;;;;;310.87;67.37;;;0.50;99.90;2.50;97585.00;;;;5003300;28;20472;-83
2024/01/26 02:40:19;;;;;;;318.03;72.40;;;0.50;99.90;2.90;97588.00;;;;5006171;28;20954;-83
2024/01/26 02:43:08;;;;;;;321.03;78.70;;;0.50;99.90;2.60;97590.00;;;;5005044;28;20970;-83
2024/01/26 02:45:56;;;;;;;314.07;73.13;;;0.50;99.90;2.80;97580.00;;;;5005131;28;20973;-84
2024/01/26 02:48:45;;;;;;;319.40;74.93;;;0.60;99.90;2.20;97568.00;;;;4992430;28;20437;-84
2024/01/26 02:51:34;;;;;;;314.67;72.23;;;0.50;99.90;2.50;97586.00;;;;4997812;28;20503;-83
2024/01/26 02:54:23;;;;;;;314.57;69.40;;;0.40;99.90;2.80;97578.00;;;;4997693;28;20433;-85
2024/01/26 02:57:13;;;;;;;315.43;71.40;;;0.50;99.90;3.00;97597.00;;;;5007152;28;20501;-84
2024/01/26 03:00:04;;;;;;;317.13;70.20;;;0.50;99.90;3.10;97600.00;;;;5015555;28;20441;-83
2024/01/26 03:02:53;;;;;;;307.20;65.43;;;0.60;99.90;2.90;97594.00;;;;5013523;28;20425;-84
2024/01/26 03:05:42;;;;;;;314.90;68.83;;;;;2.70;97601.00;;;;4996437;28;20450;-83
2024/01/26 03:08:31;;;;;;;312.00;70.50;;;0.60;99.90;2.80;97592.00;;;;5019574;27;20432;-84
2024/01/26 03:11:20;;;;;;;323.97;81.50;;;0.70;99.90;2.90;97601.00;;;;5006743;28;20816;-83
2024/01/26 03:14:11;;;;;;;310.90;70.53;;;0.70;99.90;3.20;97596.00;;;;5008110;28;20429;-85
2024/01/26 03:17:00;;;;;;;313.47;70.10;;;0.80;99.90;3.40;97591.00;;;;5001380;28;20427;-84
2024/01/26 03:19:49;;;;;;;320.10;74.17;;;;;3.50;97583.00;;;;5003413;28;20425;-83
2024/01/26 03:22:38;;;;;;;320.93;73.53;;;0.90;99.90;3.30;97602.00;;;;5011228;28;20437;-85
2024/01/26 03:25:26;;;;;;;329.17;81.03;;;1.00;99.90;3.30;97607.00;;;;5003289;28;20437;-85
2024/01/26 03:28:16;;;;;;;319.07;73.57;;;1.00;99.90;3.10;97603.00;;;;5018176;28;20473;-86
2024/01/26 03:31:07;;;;;;;317.70;73.43;;;1.00;99.90;3.30;97615.00;;;;5011732;28;20452;-85
2024/01/26 03:33:56;;;;;;;314.50;72.27;;;1.00;99.90;3.70;97606.00;;;;5009673;28;20444;-85
2024/01/26 03:36:45;;;;;;;307.17;66.63;;;1.10;99.90;3.40;97621.00;;;;5009988;28;20426;-84
2024/01/26 03:39:34;;;;;;;314.93;70.90;;;1.20;99.90;3.50;97606.00;;;;5005526;28;20434;-84
2024/01/26 03:42:23;;;;;;;325.53;76.07;;;1.20;99.90;3.70;97610.00;;;;5001016;28;20425;-83
2024/01/26 03:45:12;;;;;;;329.43;81.47;;;1.20;99.90;3.80;97619.00;;;;5010618;28;20953;-85
2024/01/26 03:48:03;;;;;;;320.90;82.30;;;1.30;99.90;3.80;97623.00;;;;4999128;28;20466;-83
2024/01/26 03:50:52;;;;;;;317.33;75.23;;;1.40;99.90;3.90;97624.00;;;;5004344;28;20828;-84
2024/01/26 03:53:41;;;;;;;313.30;70.07;;;1.40;99.90;3.80;97626.00;;;;5003173;28;20418;-84
2024/01/26 03:56:30;;;;;;;316.70;70.53;;;1.40;99.90;3.70;97624.00;;;;5006615;28;20438;-86
2024/01/26 03:59:20;;;;;;;318.07;72.27;;;1.50;99.90;3.90;97635.00;;;;5008217;28;20835;-85
2024/01/26 04:02:10;;;;;;;318.27;75.23;;;1.50;99.90;3.90;97631.00;;;;4999661;28;20804;-86
2024/01/26 04:05:00;;;;;;;314.70;71.03;;;1.50;99.90;4.00;97634.00;;;;4991380;28;20466;-85
2024/01/26 04:07:49;;;;;;;310.13;67.03;;;1.50;99.90;3.80;97643.00;;;;4997727;28;20464;-85
2024/01/26 04:10:38;;;;;;;315.83;70.63;;;1.50;99.90;3.90;97637.00;;;;4996653;28;20449;-85
2024/01/26 04:13:26;;;;;;;315.17;69.70;;;1.50;99.90;4.10;97619.00;;;;5008400;28;20438;-86
2024/01/26 04:16:15;;;;;;;322.27;73.87;;;1.60;99.90;4.00;97635.00;;;;4997141;28;20446;-85
2024/01/26 04:19:04;;;;;;;314.73;70.77;;;1.70;99.90;3.60;97615.00;;;;5004945;28;20448;-85
2024/01/26 04:21:54;;;;;;;309.43;68.13;;;1.60;99.90;3.80;97620.00;;;;5004574;28;20441;-84
2024/01/26 04:24:43;;;;;;;319.90;72.13;;;1.50;99.90;3.90;97623.00;;;;5005927;28;20793;-85
2024/01/26 04:27:32;;;;;;;313.47;69.90;;;1.60;99.90;4.00;97640.00;;;;5008689;28;20453;-85
2024/01/26 04:30:22;;;;;;;325.97;77.83;;;1.60;99.90;4.10;97636.00;;;;5009066;28;20455;-85
2024/01/26 04:33:10;;;;;;;319.30;74.27;;;2.70;99.90;4.10;97635.00;;;;5008215;28;20455;-85
2024/01/26 04:35:59;;;;;;;311.80;70.27;;;1.70;99.90;4.20;97632.00;;;;5009647;28;20441;-85
2024/01/26 04:38:50;;;;;;;314.77;69.90;;;1.70;99.90;4.00;97627.00;;;;5011048;28;20418;-84
2024/01/26 04:41:39;;;;;;;319.03;74.33;;;1.70;99.90;4.00;97633.00;;;;5019007;28;20462;-84
2024/01/26 04:44:27;;;;;;;321.83;79.83;;;1.70;99.90;4.20;97645.00;;;;5002890;28;20441;-83
2024/01/26 04:47:17;;;;;;;326.43;78.53;;;1.70;99.90;4.20;97632.00;;;;4993233;28;20494;-84
2024/01/26 04:50:07;;;;;;;319.53;71.03;;;1.70;99.90;4.10;97629.00;;;;4996430;28;20461;-83
2024/01/26 04:52:56;;;;;;;320.20;71.97;;;1.70;99.90;4.20;97645.00;;;;5001740;28;20964;-83
2024/01/26 04:55:46;;;;;;;319.23;71.93;;;1.80;99.90;3.80;97643.00;;;;5004759;27;20426;-85
2024/01/26 04:58:35;;;;;;;316.97;70.53;;;1.70;99.90;3.70;97626.00;;;;4994901;28;20434;-84
2024/01/26 05:01:24;;;;;;;330.83;78.43;;;1.70;99.90;4.10;97638.00;;;;5005634;28;20468;-84
2024/01/26 05:04:13;;;;;;;324.07;74.40;;;1.70;99.90;4.10;97637.00;;;;5005063;28;20444;-84
2024/01/26 05:07:01;;;;;;;317.90;70.87;;;1.70;99.90;4.00;97638.00;;;;5003895;28;20448;-84
2024/01/26 05:09:50;;;;;;;318.60;73.93;;;1.70;99.90;4.20;97634.00;;;;5001810;28;20426;-84
2024/01/26 05:12:41;;;;;;;320.37;75.97;;;1.80;99.90;4.10;97647.00;;;;5004760;28;20447;-85
2024/01/26 05:15:29;;;;;;;325.07;74.43;;;1.80;99.90;4.40;97643.00;;;;5001286;28;20794;-86
2024/01/26 05:18:18;;;;;;;330.97;80.03;;;1.80;99.90;4.30;97646.00;;;;4995554;28;20452;-83
2024/01/26 05:21:07;;;;;;;324.40;76.17;;;1.90;99.90;4.40;97650.00;;;;4994565;28;20461;-85
2024/01/26 05:23:56;;;;;;;318.27;73.47;;;1.90;99.90;4.60;97655.00;;;;5007750;28;20429;-83
2024/01/26 05:26:46;;;;;;;315.13;70.93;;;2.00;99.90;4.40;97646.00;;;;5001165;28;20445;-84
2024/01/26 05:29:36;;;;;;;316.50;71.00;;;1.90;99.90;4.40;97629.00;;;;5000480;28;20431;-84
2024/01/26 05:32:25;;;;;;;339.73;82.80;;;2.00;99.90;4.00;97641.00;;;;5009035;28;20442;-85
2024/01/26 05:35:14;;;;;;;334.10;80.17;;;2.00;99.90;4.30;97642.00;;;;5004649;28;20437;-86
2024/01/26 05:38:04;;;;;;;316.63;71.77;;;2.00;99.90;4.20;97649.00;;;;4996504;28;20427;-85
2024/01/26 05:40:53;;;;;;;323.13;74.10;;;1.90;99.90;4.40;97655.00;;;;4999560;28;20457;-83
2024/01/26 05:43:41;;;;;;;320.87;82.70;;;2.00;99.90;4.50;97657.00;;;;4997109;28;20815;-85
2024/01/26 05:46:32;;;;;;;324.83;81.93;;;2.00;99.90;4.60;97651.00;;;;5001384;28;20434;-83
2024/01/26 05:49:21;;;;;;;327.70;83.77;;;2.00;99.90;4.60;97661.00;;;;4990242;28;20486;-83
2024/01/26 05:52:09;;;;;;;317.17;76.27;;;2.00;99.90;4.10;97655.00;;;;5005509;28;20965;-83
2024/01/26 05:54:58;;;;;;;326.10;85.53;;;2.00;99.90;3.90;97662.00;;;;5004804;28;20434;-83
2024/01/26 05:57:47;;;;;;;319.73;79.83;;;1.90;99.90;4.40;97664.00;;;;4997929;28;20449;-83
2024/01/26 06:00:36;;;;;;;320.20;82.10;;;2.00;99.90;4.60;97674.00;;;;5000609;28;20473;-83
2024/01/26 06:03:26;;;;;;;328.13;83.30;;;2.00;99.90;4.40;97661.00;;;;5006762;28;20464;-83
2024/01/26 06:06:16;;;;;;;322.50;78.60;;;2.00;99.90;4.20;97662.00;;;;5002076;28;20529;-83
2024/01/26 06:09:05;;;;;;;323.00;79.13;;;2.00;99.90;4.00;97655.00;;;;4997016;28;20473;-83
2024/01/26 06:11:54;;;;;;;347.97;91.30;;;2.00;99.90;3.80;97656.00;;;;4991379;28;20410;-85
2024/01/26 06:14:43;;;;;;;360.58;107.75;;;1.80;99.90;3.90;97647.00;;;;5003415;28;20393;-85
2024/01/26 06:17:32;;;;;;;328.73;78.03;;;2.00;99.90;4.30;97650.00;;;;5005053;28;20230;-85
2024/01/26 06:20:22;;;;;;;341.97;82.33;;;2.00;99.90;4.20;97655.00;;;;4999539;28;20453;-85
2024/01/26 06:23:11;;;;;;;337.03;79.67;;;2.00;99.90;3.90;97653.00;;;;4966913;28;20834;-83
2024/01/26 06:26:00;;;;;;;424.67;146.63;;;2.00;99.90;4.20;97661.00;;;;4985460;28;20442;-85
2024/01/26 06:28:49;;;;;;;325.20;75.17;;;2.00;99.90;4.20;97658.00;;;;5009461;28;21722;-83
2024/01/26 06:31:39;;;;;;;320.87;72.97;;;2.00;99.90;4.50;97664.00;;;;4989233;28;21067;-83
2024/01/26 06:34:28;;;;;;;325.87;77.63;;;2.00;99.90;4.70;97669.00;;;;5008700;28;20433;-85
2024/01/26 06:37:19;;;;;;;329.23;79.67;;;2.10;99.90;4.60;97656.00;;;;4975039;28;20451;-85
2024/01/26 06:40:12;;;;;;;399.93;130.27;;;2.20;99.90;4.70;97668.00;;;;4949508;28;20437;-85
2024/01/26 06:43:05;;;;;;;435.37;159.17;;;2.20;99.90;4.60;97672.00;;;;4948274;28;20814;-85
2024/01/26 06:45:54;;;;;;;389.63;117.87;;;2.20;99.90;4.50;97668.00;;;;4947702;28;20458;-87
2024/01/26 06:48:43;;;;;;;446.20;169.30;;;1.90;99.90;4.60;97676.00;;;;4952589;28;20997;-86
2024/01/26 06:51:32;;;;;;;317.90;75.40;;;2.20;99.90;4.60;97675.00;;;;4989756;28;20569;-85
2024/01/26 06:54:22;;;;;;;327.23;76.67;;;2.20;99.90;4.60;97666.00;;;;5004815;28;20433;-86
2024/01/26 06:57:11;;;;;;;318.83;73.90;;;2.20;99.90;4.60;97674.00;;;;5011985;28;20444;-85
2024/01/26 07:00:04;;;;;;;394.73;131.23;;;2.20;99.90;4.50;97668.00;;;;4993518;28;21401;-85
2024/01/26 07:02:53;;;;;;;427.30;155.93;;;2.20;99.90;4.30;97671.00;;;;4946397;28;20454;-85
2024/01/26 07:05:42;;;;;;;426.37;151.87;;;2.10;99.90;4.30;97668.00;;;;4946916;28;20453;-83
2024/01/26 07:08:31;;;;;;;445.10;165.07;;;2.10;99.90;3.80;97659.00;;;;4946410;28;20983;-85
2024/01/26 07:11:24;;;;;;;328.90;79.80;;;2.00;99.90;3.80;97663.00;;;;4985934;28;20445;-83
2024/01/26 07:14:14;;;;;;;341.37;86.37;;;1.90;99.90;4.00;97667.00;;;;5003309;28;20434;-84
2024/01/26 07:17:04;;;;;;;311.27;69.63;;;1.90;99.90;3.80;97657.00;;;;4985222;28;20517;-83
2024/01/26 07:19:53;;;;;;;342.17;86.77;;;1.80;99.90;3.60;97667.00;;;;4998696;28;20868;-83
2024/01/26 07:22:43;;;;;;;316.10;75.40;;;1.70;99.90;3.50;97668.00;;;;4999634;28;20426;-83
2024/01/26 07:25:32;;;;;;;423.73;153.07;;;1.70;99.90;3.50;97667.00;;;;4986963;28;21384;-85
2024/01/26 07:28:22;;;;;;;435.07;163.80;;;1.70;99.90;3.60;97654.00;;;;4991169;28;20475;-85
2024/01/26 07:31:11;;;;;;;320.80;82.33;;;1.70;99.90;4.00;97673.00;;;;4986824;28;20469;-85
2024/01/26 07:34:00;;;;;;;316.13;76.63;;;1.80;99.90;4.60;97681.00;;;;5001784;28;20445;-84
2024/01/26 07:36:49;;;;;;;314.20;69.80;;;1.90;99.90;4.40;97693.00;;;;5005083;28;20440;-85
2024/01/26 07:39:38;;;;;;;317.60;71.07;;;2.00;99.90;4.60;97708.00;;;;4994519;28;20823;-86
2024/01/26 07:42:27;;;;;;;334.77;82.47;;;2.00;99.90;4.40;97714.00;;;;5003958;27;20423;-83
2024/01/26 07:45:17;;;;;;;354.03;90.30;;;2.10;99.90;4.30;97716.00;;;;5001429;28;20480;-86
2024/01/26 07:48:08;;;;;;;338.30;80.20;;;2.10;99.90;4.40;97692.00;;;;4993821;28;20453;-84
2024/01/26 07:50:57;;;;;;;326.53;78.77;;;2.10;99.90;4.70;97698.00;;;;4993591;27;20445;-84
2024/01/26 07:53:46;;;;;;;333.80;79.83;;;2.10;99.90;5.20;97711.00;;;;4990740;28;20457;-84
2024/01/26 07:56:35;;;;;;;333.77;88.77;;;2.30;99.90;4.20;97700.00;;;;4992522;28;20440;-84
2024/01/26 07:59:25;;;;;;;342.37;86.50;;;2.30;99.90;3.80;97695.00;;;;4994970;28;20449;-85
2024/01/26 08:02:15;;;;;;;337.43;102.03;;;2.20;99.90;4.30;97712.00;;;;4993280;28;20441;-85
2024/01/26 08:05:04;;;;;;;331.93;82.07;;;2.30;99.90;5.10;97696.00;;;;4994495;28;20457;-87
2024/01/26 08:07:53;;;;;;;338.70;82.23;;;2.40;99.90;4.90;97694.00;;;;4993033;28;20433;-86
2024/01/26 08:10:42;;;;;;;338.70;81.27;;;2.50;99.90;5.10;97688.00;;;;4993755;28;20481;-84
2024/01/26 08:13:31;;;;;;;345.57;86.07;;;2.60;99.90;5.10;97686.00;;;;4989711;28;20445;-84
2024/01/26 08:16:20;;;;;;;349.10;88.83;;;2.70;99.90;4.80;97692.00;;;;4989035;28;20444;-86
2024/01/26 08:19:10;;;;;;;352.97;88.50;;;2.70;99.90;4.80;97688.00;;;;4988722;28;20457;-86
2024/01/26 08:21:59;;;;;;;327.50;81.60;;;2.80;99.90;4.40;97691.00;;;;4994874;28;20452;-85
2024/01/26 08:24:48;;;;;;;350.97;88.50;;;2.70;99.90;5.30;97695.00;;;;4989872;28;20449;-85
2024/01/26 08:27:37;;;;;;;342.03;85.97;;;2.90;99.90;5.20;97684.00;;;;4991066;28;21100;-84
2024/01/26 08:30:26;;;;;;;356.33;92.80;;;3.00;99.90;5.50;97687.00;;;;4991348;28;22191;-87
2024/01/26 08:33:15;;;;;;;350.70;89.33;;;3.10;99.90;5.90;97693.00;;;;4989533;28;20453;-86
2024/01/26 08:36:06;;;;;;;339.13;81.77;;;3.40;99.90;6.50;97700.00;;;;4990873;28;20436;-86
2024/01/26 08:38:56;;;;;;;341.33;83.03;;;3.60;99.90;7.20;97700.00;;;;4991689;28;20560;-84
2024/01/26 08:41:46;;;;;;;347.53;84.47;;;3.80;99.90;6.70;97711.00;;;;4991273;28;21002;-86
2024/01/26 08:44:35;;;;;;;339.73;82.30;;;4.00;99.90;7.70;97710.00;;;;4993926;28;20817;-86
2024/01/26 08:47:24;;;;;;;357.73;91.40;;;4.30;99.90;7.90;97711.00;;;;4992105;28;20461;-84
2024/01/26 08:50:13;;;;;;;344.93;88.40;;;4.60;99.90;7.90;97715.00;;;;5010969;28;20475;-84
2024/01/26 08:53:04;;;;;;;335.10;82.33;;;5.90;99.90;8.00;97725.00;;;;5002793;28;20449;-85
2024/01/26 08:55:53;;;;;;;336.60;81.13;;;5.00;99.90;7.60;97725.00;;;;5010948;28;20414;-86
2024/01/26 08:58:41;;;;;;;341.13;84.50;;;5.10;99.90;7.60;97719.00;;;;5008929;28;20425;-87
2024/01/26 09:01:30;;;;;;;346.80;91.07;;;5.10;99.90;7.50;97723.00;;;;5008860;28;20461;-86
2024/01/26 09:04:19;;;;;;;356.93;97.23;;;5.20;99.90;7.80;97717.00;;;;5008226;28;20441;-86
2024/01/26 09:07:08;;;;;;;337.20;83.00;;;5.20;99.90;8.50;97706.00;;;;5007899;28;20842;-85
2024/01/26 09:09:59;;;;;;;339.07;91.57;;;5.30;99.90;8.90;97718.00;;;;4996819;28;20517;-86
2024/01/26 09:12:48;;;;;;;346.53;89.37;;;5.60;99.90;9.10;97721.00;;;;5014794;28;20428;-87
2024/01/26 09:15:38;;;;;;;346.60;88.77;;;5.70;99.90;9.20;97717.00;;;;5001957;28;20457;-87
2024/01/26 09:18:26;;;;;;;351.03;91.57;;;5.90;99.90;9.30;97716.00;;;;5011250;28;20423;-85
2024/01/26 09:21:21;;;;;;;355.10;96.47;;;6.10;99.90;9.00;97703.00;;;;5005986;28;20461;-83
2024/01/26 09:24:10;;;;;;;351.43;93.67;;;6.30;99.90;9.50;97713.00;;;;5004127;28;20439;-84
2024/01/26 09:27:00;;;;;;;337.83;84.87;;;6.40;99.90;9.60;97724.00;;;;5003492;28;20979;-84
2024/01/26 09:29:49;;;;;;;345.40;94.07;;;6.70;99.90;9.70;97718.00;;;;4994332;28;20218;-83
2024/01/26 09:32:38;;;;;;;356.07;105.23;;;6.70;99.90;10.00;97709.00;;;;5003312;28;20511;-84
2024/01/26 09:35:27;;;;;;;354.03;100.10;;;6.90;99.90;9.90;97693.00;;;;5007924;28;20438;-84
2024/01/26 09:38:18;;;;;;;347.50;98.87;;;7.00;99.90;10.20;97705.00;;;;5006952;28;20440;-85
2024/01/26 09:41:06;;;;;;;344.43;101.57;;;7.10;99.90;10.00;97712.00;;;;5016836;28;20229;-85
2024/01/26 09:43:57;;;;;;;339.20;97.40;;;7.20;99.90;10.30;97713.00;;;;5004909;28;20210;-87
2024/01/26 09:46:46;;;;;;;340.20;90.93;;;7.30;99.90;10.80;97711.00;;;;5016599;28;20429;-85
2024/01/26 09:49:36;;;;;;;338.00;87.30;;;7.70;99.90;10.70;97700.00;;;;5003181;28;20231;-84
2024/01/26 09:52:25;;;;;;;354.90;98.53;;;7.60;99.90;11.40;97709.00;;;;5005542;28;20202;-85
2024/01/26 09:55:15;;;;;;;342.80;93.13;;;7.80;99.90;11.90;97701.00;;;;5010305;28;20421;-85
2024/01/26 09:58:07;;;;;;;343.10;93.13;;;8.10;99.90;11.90;97695.00;;;;5003270;28;20202;-85
2024/01/26 10:00:57;;;;;;;339.20;92.57;;;8.40;99.30;11.90;97692.00;;;;5004574;28;20495;-84
2024/01/26 10:03:46;;;;;;;339.87;89.67;;;8.70;98.50;12.10;97690.00;;;;5006116;28;20212;-87
2024/01/26 10:06:35;;;;;;;351.70;103.73;;;8.90;98.30;12.70;97691.00;;;;5012198;28;20310;-85
2024/01/26 10:09:25;;;;;;;360.00;109.90;;;9.20;98.10;12.60;97688.00;;;;4999072;28;20599;-85
2024/01/26 10:12:15;;;;;;;348.03;98.40;;;9.40;97.20;12.20;97692.00;;;;5003651;28;20203;-85
2024/01/26 10:15:07;;;;;;;340.50;102.93;;;9.40;96.80;12.30;97693.00;;;;5000759;28;20260;-86
2024/01/26 10:17:57;;;;;;;344.00;107.20;;;9.40;96.80;12.20;97693.00;;;;5007631;28;20229;-84
2024/01/26 10:20:47;;;;;;;350.50;104.93;;;9.40;96.70;12.30;97679.00;;;;4995915;28;20271;-86
2024/01/26 10:23:36;;;;;;;347.83;102.53;;;9.30;96.90;12.30;97681.00;;;;5005130;28;20203;-87
2024/01/26 10:26:25;;;;;;;368.00;117.57;;;9.30;97.00;12.10;97691.00;;;;5003147;28;20198;-85
2024/01/26 10:29:13;;;;;;;354.20;110.00;;;9.30;96.90;12.10;97684.00;;;;5006667;28;20208;-84
2024/01/26 10:32:04;;;;;;;354.20;105.83;;;9.30;96.90;11.90;97687.00;;;;4998898;28;20581;-87
2024/01/26 10:34:58;;;;;;;353.87;105.37;;;9.20;96.50;12.00;97694.00;;;;5004594;28;20203;-85
2024/01/26 10:37:48;;;;;;;339.67;95.07;;;9.10;96.50;11.60;97682.00;;;;4997638;28;20694;-86
2024/01/26 10:40:38;;;;;;;344.63;96.47;;;9.10;96.50;12.20;97651.00;;;;5001746;28;20218;-85
2024/01/26 10:43:27;;;;;;;351.73;102.57;;;9.10;96.70;12.50;97663.00;;;;4996092;28;20315;-87
2024/01/26 10:46:16;;;;;;;343.70;100.73;;;9.30;96.80;12.70;97666.00;;;;5009277;28;20206;-86
2024/01/26 10:49:06;;;;;;;338.27;93.13;;;9.60;96.20;12.10;97663.00;;;;5003092;28;20594;-84
2024/01/26 10:52:00;;;;;;;348.00;104.87;;;9.60;95.60;12.70;97647.00;;;;5002564;28;20557;-87
2024/01/26 10:54:51;;;;;;;352.13;104.70;;;9.80;96.00;13.90;97641.00;;;;5017901;28;20206;-85
2024/01/26 10:57:40;;;;;;;354.73;109.77;;;10.40;96.10;14.60;97635.00;;;;5001331;28;20678;-85
2024/01/26 11:00:29;;;;;;;365.10;121.37;;;11.60;94.50;15.10;97645.00;;;;4999187;28;20215;-85
2024/01/26 11:03:19;;;;;;;361.07;115.37;;;12.60;93.10;15.70;97628.00;;;;5001626;28;20210;-84
2024/01/26 11:06:09;;;;;;;371.90;127.87;;;13.50;91.30;15.80;97621.00;;;;5006829;28;20222;-86
2024/01/26 11:09:05;;;;;;;385.10;138.37;;;14.20;87.70;16.60;97617.00;;;;5007528;28;20203;-86
2024/01/26 11:11:58;;;;;;;368.83;132.30;;;14.80;86.80;16.80;97614.00;;;;4998427;28;20233;-87
2024/01/26 11:14:48;;;;;;;380.13;149.30;;;15.30;83.10;17.80;97616.00;;;;4998556;28;20213;-85
2024/01/26 11:17:51;;;;;;;374.47;155.43;;;15.80;82.90;16.80;97601.00;;;;5004660;28;20363;-88
2024/01/26 11:20:43;;;;;;;371.37;153.53;;;16.10;78.10;17.00;97610.00;;;;5005728;28;20226;-86
2024/01/26 11:23:40;;;;;;;382.10;168.27;;;16.00;77.40;16.40;97607.00;;;;5011994;28;20306;-87
2024/01/26 11:26:30;;;;;;;383.47;164.90;;;15.50;76.90;15.50;97599.00;;;;5003319;28;20688;-86
2024/01/26 11:29:19;;;;;;;377.77;159.57;;;14.80;77.70;15.50;97600.00;;;;5008307;28;20210;-84
2024/01/26 11:32:18;;;;;;;379.67;158.97;;;14.10;79.00;15.30;97600.00;;;;5009278;28;20671;-82
2024/01/26 11:35:09;;;;;;;371.27;143.20;;;13.60;80.40;15.40;97608.00;;;;4999209;28;20210;-83
2024/01/26 11:38:00;;;;;;;370.87;139.77;;;13.20;82.10;15.30;97601.00;;;;5003188;28;20695;-84
2024/01/26 11:40:49;;;;;;;373.37;137.43;;;12.90;82.90;15.20;97598.00;;;;5010739;28;20226;-84
2024/01/26 11:43:45;;;;;;;368.67;138.47;;;12.60;84.20;15.20;97596.00;;;;5000950;28;20263;-84
2024/01/26 11:46:35;;;;;;;367.67;130.67;;;12.40;85.00;15.00;97576.00;;;;5010085;28;20210;-84
2024/01/26 11:49:24;;;;;;;378.97;136.47;;;12.30;85.50;14.30;97569.00;;;;5003278;28;20210;-84
2024/01/26 11:52:15;;;;;;;373.40;135.67;;;12.10;85.20;14.30;97560.00;;;;4999739;28;20695;-84
2024/01/26 11:55:05;;;;;;;364.90;133.17;;;11.90;85.90;14.10;97573.00;;;;5006638;28;20711;-85
2024/01/26 11:57:55;;;;;;;363.63;124.73;;;11.60;86.00;14.10;97576.00;;;;5005018;28;20202;-86
2024/01/26 12:00:47;;;;;;;355.83;118.67;;;11.40;87.10;14.10;97560.00;;;;5000181;28;20715;-84
2024/01/26 12:03:36;;;;;;;368.00;124.37;;;11.30;87.70;13.80;97556.00;;;;5002085;28;20202;-85
2024/01/26 12:06:25;;;;;;;376.07;128.03;;;11.10;88.10;13.80;97550.00;;;;5001473;28;20204;-85
2024/01/26 12:09:15;;;;;;;361.73;119.57;;;11.00;88.40;13.90;97551.00;;;;5006558;28;20206;-86
2024/01/26 12:12:07;;;;;;;359.33;115.80;;;11.00;89.10;13.80;97546.00;;;;5004521;28;20199;-86
2024/01/26 12:14:56;;;;;;;371.50;125.00;;;10.90;89.40;13.90;97545.00;;;;5005404;28;20252;-86
2024/01/26 12:17:49;;;;;;;359.77;117.83;;;10.80;89.70;13.90;97546.00;;;;5009645;28;20206;-84
2024/01/26 12:20:38;;;;;;;352.40;112.33;;;10.80;90.10;14.00;97538.00;;;;5002011;28;20252;-84